Ada, Kansas
Current Conditions -  °F | °C
As of 3:53 PM on Monday 20 Oct 2014 (Local Time) from KSLN Reporting Station
Clear Clear  
Wind Chill: 78°   Ceiling: Unl
Heat Index: 78°   Visibility: 10mi
Dew Point: 46°   Wind: 7mph
Humidity: 32%   Direction: 70°ENE
Pressure: 30.04"   Gusts: NA
Location:  39.1542°N, 97.5941°W
Report Text: KSLN 202053Z 07006KT 10SM CLR 26/08 A3004 RMK AO2 SLP166 T02560078 56017
Loading
Personal Weather Stations






























Interactive Weather Map
Tropical Storm Tracking
New forecast layout! Learn more

10-Day Weather Forecast

Advertisements
Track Severe Weather on mobile